createdAt,value
2022-09-14T12:23:43.918Z,100288.00
2022-09-14T12:34:24.660Z,100287.00
2022-09-14T12:44:47.470Z,100286.00
2022-09-14T12:55:37.414Z,100267.00
2022-09-14T13:06:00.103Z,100264.00
2022-09-14T13:16:32.191Z,100232.00
2022-09-14T13:26:57.317Z,100221.00
2022-09-14T13:37:19.665Z,100225.00
2022-09-14T13:47:42.790Z,100212.00
2022-09-14T13:58:14.137Z,100223.00
2022-09-14T14:08:39.510Z,100194.00
2022-09-14T14:19:01.263Z,100182.00
2022-09-14T14:29:24.081Z,100179.00
2022-09-14T14:39:49.569Z,100178.00
2022-09-14T14:50:16.938Z,100181.00
2022-09-14T15:00:39.120Z,100182.00
2022-09-14T15:11:02.082Z,100177.00
2022-09-14T15:21:23.796Z,100158.00
2022-09-14T15:31:47.045Z,100169.00
2022-09-14T15:42:09.159Z,100160.00
2022-09-14T15:52:32.261Z,100151.00
2022-09-14T16:02:53.946Z,100153.00
2022-09-14T16:13:16.829Z,100163.00
2022-09-14T16:23:44.538Z,100158.00
2022-09-14T16:34:10.084Z,100150.00
2022-09-14T16:44:31.942Z,100168.00
2022-09-14T16:54:56.270Z,100156.00
2022-09-14T17:05:18.244Z,100156.00
2022-09-14T17:15:41.168Z,100140.00
2022-09-14T17:26:05.548Z,100142.00
2022-09-14T17:36:29.607Z,100130.00
2022-09-14T17:46:56.793Z,100133.00
2022-09-14T17:57:23.490Z,100129.00
2022-09-14T18:07:45.008Z,100128.00
2022-09-14T18:18:08.016Z,100109.00
2022-09-14T18:28:30.114Z,100109.00
2022-09-14T18:38:53.195Z,100094.00
2022-09-14T18:49:15.327Z,100110.00
2022-09-14T18:59:38.694Z,100113.00
2022-09-14T19:10:00.415Z,100096.00
2022-09-14T19:20:23.407Z,100102.00
2022-09-14T19:30:45.164Z,100094.00
2022-09-14T19:41:08.620Z,100116.00
2022-09-14T19:51:31.744Z,100108.00
2022-09-14T20:01:55.184Z,100110.00
2022-09-14T20:12:17.298Z,100099.00
2022-09-14T20:22:40.252Z,100092.00
2022-09-14T20:33:02.155Z,100097.00
2022-09-14T20:53:49.611Z,100097.00
2022-09-14T21:04:13.490Z,100109.00
2022-09-14T21:14:36.466Z,100103.00
2022-09-14T21:24:58.304Z,100107.00
2022-09-14T21:35:21.883Z,100105.00
2022-09-14T21:45:46.177Z,100107.00
2022-09-14T21:56:09.511Z,100108.00
2022-09-14T22:06:33.091Z,100098.00
2022-09-14T22:16:56.503Z,100086.00
2022-09-14T22:27:18.193Z,100094.00
2022-09-14T22:37:40.991Z,100090.00
2022-09-14T22:48:03.341Z,100067.00
2022-09-14T22:58:28.434Z,100089.00
2022-09-14T23:08:51.394Z,100084.00
2022-09-14T23:19:16.225Z,100076.00
2022-09-14T23:29:37.883Z,100079.00
2022-09-14T23:40:00.767Z,100081.00
2022-09-14T23:50:23.273Z,100067.00
